KOLM Airport (Olympia Rgnl) Information

FAA: OLM - ICAO: KOLM

KOLM Airport Location

State Washington
County Thurston
City Olympia
KOLM Airport is 4 miles south of Olympia, WA.
Latitude 46-58-09.8560N
Longitude 122-54-09.1610W
Elevation 207ft

KOLM Airport METARs

METAR KOLM 071854Z 22005KT 10SM OVC044 05/04 A3014 RMK AO2 SLP208 T00500039
Altimeter 30.14"
Temperature 5.0°C (41.0°F)
Wind 220° at 5KT
Clouds overcast at 4,400ft
Visibility 10.0mi
Time observed: 2022-12-07T18:54:00Z

KOLM Airport Details

Status Operational
Activation December 1937
Ownership Public
Usage Public
Chart SEATTLE
ATC on-site Yes
Beacon schedule sunset-sunrise
Beacon color clear green

KOLM Airport Contacts

Owner PORT OF OLYMPIA
Owner address 606 COLUMBIA ST NW, SUITE 300, OLYMPIA, WA 98501-0827
Owner phone 360-528-8000
Manager MUNICIPAL SERVICES DIRECTOR
Manager address CITY HALL, P.O. BOX 1579, MOSES LAKE, WA 98837
Manager phone (509) 764-3777

KOLM Airport (Olympia Rgnl) Radio Frequencies

KOLM (Airport) Radio Frequencies

UNICOM 122.95
Common traffic advisory frequency (CTAF) 124.4